Big Otter, West Virginia
Current Conditions -  °F | °C
As of 2:54 PM on Wednesday 17 Dec 2014 (Local Time) from KCRW Reporting Station
Overcast Overcast  
Wind Chill: -1°   Ceiling: 2500
Heat Index:   Visibility: 10mi
Dew Point: -2°   Wind: 10mph
Humidity: 70%   Direction: 290°WNW
Pressure: 30.14"   Gusts: NA
Location:  38.5245°N, 81.029°W
Report Text: KCRW 171954Z COR 29009KT 10SM FEW013 OVC025 03/M02 A3014 RMK AO2 SLP211 OVC V BKN T00331017
Loading
Personal Weather Stations






























Interactive Weather Map New forecast layout! Learn more

10-Day Weather Forecast

Advertisements
Track Severe Weather on mobile